sensor_id;sensor_type;location;lat;lon;timestamp;P1;durP1;ratioP1;P2;durP2;ratioP2
22490;SDS011;11412;50.802;4.350;2023-04-25T00:01:19;10.70;;;2.92;;
22490;SDS011;11412;50.802;4.350;2023-04-25T00:03:47;17.77;;;3.05;;
22490;SDS011;11412;50.802;4.350;2023-04-25T00:06:13;10.85;;;3.22;;
22490;SDS011;11412;50.802;4.350;2023-04-25T00:08:39;10.13;;;3.30;;
22490;SDS011;11412;50.802;4.350;2023-04-25T00:11:05;13.63;;;3.10;;
22490;SDS011;11412;50.802;4.350;2023-04-25T00:13:30;8.68;;;2.85;;
22490;SDS011;11412;50.802;4.350;2023-04-25T00:15:57;9.98;;;3.65;;
22490;SDS011;11412;50.802;4.350;2023-04-25T00:18:23;9.63;;;3.38;;
22490;SDS011;11412;50.802;4.350;2023-04-25T00:20:49;8.75;;;2.85;;
22490;SDS011;11412;50.802;4.350;2023-04-25T00:23:15;11.15;;;3.58;;
22490;SDS011;11412;50.802;4.350;2023-04-25T00:25:45;15.23;;;3.90;;
22490;SDS011;11412;50.802;4.350;2023-04-25T00:28:12;12.88;;;3.28;;
22490;SDS011;11412;50.802;4.350;2023-04-25T00:30:38;10.85;;;3.00;;
22490;SDS011;11412;50.802;4.350;2023-04-25T00:33:05;9.43;;;3.22;;
22490;SDS011;11412;50.802;4.350;2023-04-25T00:35:31;10.82;;;3.30;;
22490;SDS011;11412;50.802;4.350;2023-04-25T00:37:57;14.05;;;3.28;;
22490;SDS011;11412;50.802;4.350;2023-04-25T00:40:23;12.10;;;3.80;;
22490;SDS011;11412;50.802;4.350;2023-04-25T00:42:49;13.50;;;3.38;;
22490;SDS011;11412;50.802;4.350;2023-04-25T00:45:17;14.02;;;3.38;;
22490;SDS011;11412;50.802;4.350;2023-04-25T00:47:44;7.68;;;3.20;;
22490;SDS011;11412;50.802;4.350;2023-04-25T00:50:11;12.18;;;3.75;;
22490;SDS011;11412;50.802;4.350;2023-04-25T00:52:40;14.00;;;4.60;;
22490;SDS011;11412;50.802;4.350;2023-04-25T00:55:08;13.82;;;3.85;;
22490;SDS011;11412;50.802;4.350;2023-04-25T00:57:37;13.95;;;3.78;;
22490;SDS011;11412;50.802;4.350;2023-04-25T01:00:07;10.90;;;3.60;;
22490;SDS011;11412;50.802;4.350;2023-04-25T01:02:36;14.00;;;4.10;;
22490;SDS011;11412;50.802;4.350;2023-04-25T01:05:02;13.27;;;4.03;;
22490;SDS011;11412;50.802;4.350;2023-04-25T01:07:29;8.55;;;3.33;;
22490;SDS011;11412;50.802;4.350;2023-04-25T01:09:55;8.20;;;3.33;;
22490;SDS011;11412;50.802;4.350;2023-04-25T01:12:21;14.45;;;4.57;;
22490;SDS011;11412;50.802;4.350;2023-04-25T01:14:48;15.40;;;3.72;;
22490;SDS011;11412;50.802;4.350;2023-04-25T01:17:14;14.65;;;3.88;;
22490;SDS011;11412;50.802;4.350;2023-04-25T01:19:40;17.23;;;3.58;;
22490;SDS011;11412;50.802;4.350;2023-04-25T01:22:06;10.80;;;3.60;;
22490;SDS011;11412;50.802;4.350;2023-04-25T01:24:32;9.45;;;3.50;;
22490;SDS011;11412;50.802;4.350;2023-04-25T01:26:58;20.60;;;5.20;;
22490;SDS011;11412;50.802;4.350;2023-04-25T01:29:26;15.93;;;4.05;;
22490;SDS011;11412;50.802;4.350;2023-04-25T01:31:53;15.40;;;3.47;;
22490;SDS011;11412;50.802;4.350;2023-04-25T01:34:19;15.18;;;3.83;;
22490;SDS011;11412;50.802;4.350;2023-04-25T01:36:47;17.98;;;4.13;;
22490;SDS011;11412;50.802;4.350;2023-04-25T01:39:15;12.68;;;4.00;;
22490;SDS011;11412;50.802;4.350;2023-04-25T01:41:42;10.95;;;3.47;;
22490;SDS011;11412;50.802;4.350;2023-04-25T01:44:08;17.50;;;4.50;;
22490;SDS011;11412;50.802;4.350;2023-04-25T01:46:34;17.58;;;4.35;;
22490;SDS011;11412;50.802;4.350;2023-04-25T01:48:59;15.30;;;4.57;;
22490;SDS011;11412;50.802;4.350;2023-04-25T01:51:25;12.98;;;3.90;;
22490;SDS011;11412;50.802;4.350;2023-04-25T01:53:51;11.10;;;4.18;;
22490;SDS011;11412;50.802;4.350;2023-04-25T01:56:18;13.43;;;4.20;;
22490;SDS011;11412;50.802;4.350;2023-04-25T01:58:44;7.90;;;3.33;;
22490;SDS011;11412;50.802;4.350;2023-04-25T02:01:10;13.05;;;4.03;;
22490;SDS011;11412;50.802;4.350;2023-04-25T02:03:36;16.42;;;3.70;;
22490;SDS011;11412;50.802;4.350;2023-04-25T02:06:02;15.50;;;3.90;;
22490;SDS011;11412;50.802;4.350;2023-04-25T02:08:28;13.43;;;4.57;;
22490;SDS011;11412;50.802;4.350;2023-04-25T02:10:53;12.65;;;4.40;;
22490;SDS011;11412;50.802;4.350;2023-04-25T02:13:19;10.85;;;3.90;;
22490;SDS011;11412;50.802;4.350;2023-04-25T02:15:45;13.57;;;4.28;;
22490;SDS011;11412;50.802;4.350;2023-04-25T02:18:10;18.55;;;4.10;;
22490;SDS011;11412;50.802;4.350;2023-04-25T02:20:36;9.65;;;3.65;;
22490;SDS011;11412;50.802;4.350;2023-04-25T02:23:02;17.65;;;3.88;;
22490;SDS011;11412;50.802;4.350;2023-04-25T02:25:28;10.43;;;3.80;;
22490;SDS011;11412;50.802;4.350;2023-04-25T02:27:54;13.35;;;3.95;;
22490;SDS011;11412;50.802;4.350;2023-04-25T02:30:19;18.00;;;4.25;;
22490;SDS011;11412;50.802;4.350;2023-04-25T02:32:45;17.23;;;3.78;;
22490;SDS011;11412;50.802;4.350;2023-04-25T02:35:11;12.60;;;3.85;;
22490;SDS011;11412;50.802;4.350;2023-04-25T02:37:37;15.48;;;4.03;;
22490;SDS011;11412;50.802;4.350;2023-04-25T02:40:04;14.93;;;4.03;;
22490;SDS011;11412;50.802;4.350;2023-04-25T02:42:30;12.43;;;3.53;;
22490;SDS011;11412;50.802;4.350;2023-04-25T02:44:56;8.10;;;3.33;;
22490;SDS011;11412;50.802;4.350;2023-04-25T02:47:22;12.45;;;4.07;;
22490;SDS011;11412;50.802;4.350;2023-04-25T02:49:48;14.10;;;3.72;;
22490;SDS011;11412;50.802;4.350;2023-04-25T02:52:14;14.63;;;3.88;;
22490;SDS011;11412;50.802;4.350;2023-04-25T02:54:40;10.20;;;3.47;;
22490;SDS011;11412;50.802;4.350;2023-04-25T02:57:06;10.75;;;3.58;;
22490;SDS011;11412;50.802;4.350;2023-04-25T02:59:33;13.95;;;4.57;;
22490;SDS011;11412;50.802;4.350;2023-04-25T03:01:59;11.88;;;3.90;;
22490;SDS011;11412;50.802;4.350;2023-04-25T03:04:25;14.30;;;3.97;;
22490;SDS011;11412;50.802;4.350;2023-04-25T03:06:50;11.65;;;3.92;;
22490;SDS011;11412;50.802;4.350;2023-04-25T03:09:16;12.10;;;3.80;;
22490;SDS011;11412;50.802;4.350;2023-04-25T03:11:43;10.18;;;3.83;;
22490;SDS011;11412;50.802;4.350;2023-04-25T03:14:09;14.57;;;4.35;;
22490;SDS011;11412;50.802;4.350;2023-04-25T03:16:35;15.95;;;3.88;;
22490;SDS011;11412;50.802;4.350;2023-04-25T03:19:01;12.13;;;3.88;;
22490;SDS011;11412;50.802;4.350;2023-04-25T03:21:28;10.88;;;4.05;;
22490;SDS011;11412;50.802;4.350;2023-04-25T03:23:54;17.77;;;4.07;;
22490;SDS011;11412;50.802;4.350;2023-04-25T03:26:20;15.13;;;4.22;;
22490;SDS011;11412;50.802;4.350;2023-04-25T03:28:45;12.23;;;4.50;;
22490;SDS011;11412;50.802;4.350;2023-04-25T03:31:11;14.60;;;4.50;;
22490;SDS011;11412;50.802;4.350;2023-04-25T03:33:37;13.43;;;4.75;;
22490;SDS011;11412;50.802;4.350;2023-04-25T03:36:02;11.38;;;4.00;;
22490;SDS011;11412;50.802;4.350;2023-04-25T03:38:28;12.30;;;4.30;;
22490;SDS011;11412;50.802;4.350;2023-04-25T03:40:54;18.27;;;4.10;;
22490;SDS011;11412;50.802;4.350;2023-04-25T03:43:21;16.17;;;4.53;;
22490;SDS011;11412;50.802;4.350;2023-04-25T03:45:47;17.08;;;4.25;;
22490;SDS011;11412;50.802;4.350;2023-04-25T03:48:12;17.63;;;4.30;;
22490;SDS011;11412;50.802;4.350;2023-04-25T03:50:38;14.23;;;4.47;;
22490;SDS011;11412;50.802;4.350;2023-04-25T03:53:04;20.92;;;5.78;;
22490;SDS011;11412;50.802;4.350;2023-04-25T03:55:30;16.30;;;3.50;;
22490;SDS011;11412;50.802;4.350;2023-04-25T03:57:57;13.32;;;3.97;;
22490;SDS011;11412;50.802;4.350;2023-04-25T04:00:23;26.50;;;4.85;;
22490;SDS011;11412;50.802;4.350;2023-04-25T04:02:49;13.32;;;4.32;;
22490;SDS011;11412;50.802;4.350;2023-04-25T04:05:15;12.43;;;3.70;;
22490;SDS011;11412;50.802;4.350;2023-04-25T04:07:41;15.10;;;3.90;;
22490;SDS011;11412;50.802;4.350;2023-04-25T04:10:08;12.43;;;3.72;;
22490;SDS011;11412;50.802;4.350;2023-04-25T04:12:34;15.55;;;4.15;;
22490;SDS011;11412;50.802;4.350;2023-04-25T04:15:01;16.00;;;3.47;;
22490;SDS011;11412;50.802;4.350;2023-04-25T04:17:28;14.05;;;3.42;;
22490;SDS011;11412;50.802;4.350;2023-04-25T04:19:55;14.35;;;3.47;;
22490;SDS011;11412;50.802;4.350;2023-04-25T04:22:21;10.85;;;2.95;;
22490;SDS011;11412;50.802;4.350;2023-04-25T04:24:47;7.97;;;3.38;;
22490;SDS011;11412;50.802;4.350;2023-04-25T04:27:15;15.60;;;3.17;;
22490;SDS011;11412;50.802;4.350;2023-04-25T04:29:42;13.23;;;3.35;;
22490;SDS011;11412;50.802;4.350;2023-04-25T04:32:08;11.70;;;4.50;;
22490;SDS011;11412;50.802;4.350;2023-04-25T04:34:34;12.05;;;3.47;;
22490;SDS011;11412;50.802;4.350;2023-04-25T04:37:00;14.63;;;3.30;;
22490;SDS011;11412;50.802;4.350;2023-04-25T04:39:26;12.40;;;3.67;;
22490;SDS011;11412;50.802;4.350;2023-04-25T04:41:51;8.75;;;3.55;;
22490;SDS011;11412;50.802;4.350;2023-04-25T04:44:17;12.95;;;3.92;;
22490;SDS011;11412;50.802;4.350;2023-04-25T04:46:43;11.65;;;3.25;;
22490;SDS011;11412;50.802;4.350;2023-04-25T04:49:09;12.63;;;3.17;;
22490;SDS011;11412;50.802;4.350;2023-04-25T04:51:36;12.70;;;3.08;;
22490;SDS011;11412;50.802;4.350;2023-04-25T04:54:02;13.88;;;3.70;;
22490;SDS011;11412;50.802;4.350;2023-04-25T04:56:29;12.82;;;3.90;;
22490;SDS011;11412;50.802;4.350;2023-04-25T04:58:56;10.00;;;3.20;;
22490;SDS011;11412;50.802;4.350;2023-04-25T05:01:22;13.73;;;3.63;;
22490;SDS011;11412;50.802;4.350;2023-04-25T05:03:48;12.35;;;3.58;;
22490;SDS011;11412;50.802;4.350;2023-04-25T05:06:14;11.57;;;3.78;;
22490;SDS011;11412;50.802;4.350;2023-04-25T05:08:41;14.35;;;3.72;;
22490;SDS011;11412;50.802;4.350;2023-04-25T05:11:07;14.80;;;4.47;;
22490;SDS011;11412;50.802;4.350;2023-04-25T05:13:32;11.48;;;4.40;;
22490;SDS011;11412;50.802;4.350;2023-04-25T05:15:58;11.85;;;4.03;;
22490;SDS011;11412;50.802;4.350;2023-04-25T05:18:24;13.55;;;4.50;;
22490;SDS011;11412;50.802;4.350;2023-04-25T05:20:50;13.60;;;4.30;;
22490;SDS011;11412;50.802;4.350;2023-04-25T05:23:15;13.32;;;4.85;;
22490;SDS011;11412;50.802;4.350;2023-04-25T05:25:41;12.20;;;4.25;;
22490;SDS011;11412;50.802;4.350;2023-04-25T05:28:07;10.15;;;4.20;;
22490;SDS011;11412;50.802;4.350;2023-04-25T05:30:33;7.88;;;3.83;;
22490;SDS011;11412;50.802;4.350;2023-04-25T05:32:59;15.93;;;4.18;;
22490;SDS011;11412;50.802;4.350;2023-04-25T05:35:25;13.93;;;4.47;;
22490;SDS011;11412;50.802;4.350;2023-04-25T05:37:51;11.93;;;4.15;;
22490;SDS011;11412;50.802;4.350;2023-04-25T05:40:17;11.82;;;5.18;;
22490;SDS011;11412;50.802;4.350;2023-04-25T05:42:42;18.20;;;5.30;;
22490;SDS011;11412;50.802;4.350;2023-04-25T05:45:08;14.65;;;4.72;;
22490;SDS011;11412;50.802;4.350;2023-04-25T05:47:34;14.75;;;4.97;;
22490;SDS011;11412;50.802;4.350;2023-04-25T05:50:00;12.02;;;5.10;;
22490;SDS011;11412;50.802;4.350;2023-04-25T05:52:26;15.82;;;4.72;;
22490;SDS011;11412;50.802;4.350;2023-04-25T05:54:51;12.00;;;3.97;;
22490;SDS011;11412;50.802;4.350;2023-04-25T05:57:21;12.23;;;4.13;;
22490;SDS011;11412;50.802;4.350;2023-04-25T05:59:48;13.38;;;4.68;;
22490;SDS011;11412;50.802;4.350;2023-04-25T06:02:13;15.55;;;4.13;;
22490;SDS011;11412;50.802;4.350;2023-04-25T06:04:39;10.10;;;3.38;;
22490;SDS011;11412;50.802;4.350;2023-04-25T06:07:05;13.73;;;3.88;;
22490;SDS011;11412;50.802;4.350;2023-04-25T06:09:30;9.85;;;3.05;;
22490;SDS011;11412;50.802;4.350;2023-04-25T06:11:56;11.52;;;3.25;;
22490;SDS011;11412;50.802;4.350;2023-04-25T06:14:22;17.73;;;3.03;;
22490;SDS011;11412;50.802;4.350;2023-04-25T06:16:48;8.50;;;3.10;;
22490;SDS011;11412;50.802;4.350;2023-04-25T06:19:13;11.82;;;4.22;;
22490;SDS011;11412;50.802;4.350;2023-04-25T06:21:39;16.58;;;3.53;;
22490;SDS011;11412;50.802;4.350;2023-04-25T06:24:06;14.65;;;4.30;;
22490;SDS011;11412;50.802;4.350;2023-04-25T06:26:32;14.70;;;3.83;;
22490;SDS011;11412;50.802;4.350;2023-04-25T06:28:58;8.82;;;3.80;;
22490;SDS011;11412;50.802;4.350;2023-04-25T06:31:23;13.30;;;4.70;;
22490;SDS011;11412;50.802;4.350;2023-04-25T06:33:50;16.00;;;5.00;;
22490;SDS011;11412;50.802;4.350;2023-04-25T06:36:15;14.32;;;5.30;;
22490;SDS011;11412;50.802;4.350;2023-04-25T06:38:41;13.98;;;4.72;;
22490;SDS011;11412;50.802;4.350;2023-04-25T06:41:07;15.93;;;5.30;;
22490;SDS011;11412;50.802;4.350;2023-04-25T06:43:32;10.02;;;4.38;;
22490;SDS011;11412;50.802;4.350;2023-04-25T06:45:59;13.13;;;5.05;;
22490;SDS011;11412;50.802;4.350;2023-04-25T06:48:26;18.20;;;4.70;;
22490;SDS011;11412;50.802;4.350;2023-04-25T06:50:52;12.18;;;3.80;;
22490;SDS011;11412;50.802;4.350;2023-04-25T06:53:18;15.15;;;4.30;;
22490;SDS011;11412;50.802;4.350;2023-04-25T06:55:43;11.32;;;3.92;;
22490;SDS011;11412;50.802;4.350;2023-04-25T06:58:09;14.38;;;3.65;;
22490;SDS011;11412;50.802;4.350;2023-04-25T07:00:35;11.10;;;3.10;;
22490;SDS011;11412;50.802;4.350;2023-04-25T07:03:01;13.35;;;3.17;;
22490;SDS011;11412;50.802;4.350;2023-04-25T07:05:27;8.07;;;3.35;;
22490;SDS011;11412;50.802;4.350;2023-04-25T07:07:52;10.50;;;3.17;;
22490;SDS011;11412;50.802;4.350;2023-04-25T07:10:18;10.15;;;2.80;;
22490;SDS011;11412;50.802;4.350;2023-04-25T07:12:44;8.73;;;2.78;;
22490;SDS011;11412;50.802;4.350;2023-04-25T07:15:10;10.77;;;3.53;;
22490;SDS011;11412;50.802;4.350;2023-04-25T07:17:36;12.57;;;3.30;;
22490;SDS011;11412;50.802;4.350;2023-04-25T07:20:03;9.07;;;2.55;;
22490;SDS011;11412;50.802;4.350;2023-04-25T07:22:30;8.10;;;3.45;;
22490;SDS011;11412;50.802;4.350;2023-04-25T07:24:57;9.68;;;2.65;;
22490;SDS011;11412;50.802;4.350;2023-04-25T07:27:23;10.30;;;2.85;;
22490;SDS011;11412;50.802;4.350;2023-04-25T07:29:48;7.13;;;2.60;;
22490;SDS011;11412;50.802;4.350;2023-04-25T07:32:14;12.73;;;2.78;;
22490;SDS011;11412;50.802;4.350;2023-04-25T07:34:40;15.32;;;3.03;;
22490;SDS011;11412;50.802;4.350;2023-04-25T07:37:06;12.05;;;3.55;;
22490;SDS011;11412;50.802;4.350;2023-04-25T07:39:32;7.88;;;2.85;;
22490;SDS011;11412;50.802;4.350;2023-04-25T07:41:58;9.00;;;2.78;;
22490;SDS011;11412;50.802;4.350;2023-04-25T07:44:23;15.65;;;2.70;;
22490;SDS011;11412;50.802;4.350;2023-04-25T07:46:50;11.02;;;3.17;;
22490;SDS011;11412;50.802;4.350;2023-04-25T07:49:16;7.82;;;2.97;;
22490;SDS011;11412;50.802;4.350;2023-04-25T07:51:42;8.15;;;2.28;;
22490;SDS011;11412;50.802;4.350;2023-04-25T07:54:14;5.15;;;1.90;;
22490;SDS011;11412;50.802;4.350;2023-04-25T07:56:40;7.60;;;2.70;;
22490;SDS011;11412;50.802;4.350;2023-04-25T07:59:06;9.95;;;2.63;;
22490;SDS011;11412;50.802;4.350;2023-04-25T08:01:33;9.63;;;2.58;;
22490;SDS011;11412;50.802;4.350;2023-04-25T08:03:59;5.70;;;2.10;;
22490;SDS011;11412;50.802;4.350;2023-04-25T08:06:25;9.00;;;2.17;;
22490;SDS011;11412;50.802;4.350;2023-04-25T08:08:50;5.60;;;1.90;;
22490;SDS011;11412;50.802;4.350;2023-04-25T08:11:16;18.48;;;2.47;;
22490;SDS011;11412;50.802;4.350;2023-04-25T08:13:42;7.90;;;2.38;;
22490;SDS011;11412;50.802;4.350;2023-04-25T08:16:07;7.35;;;2.13;;
22490;SDS011;11412;50.802;4.350;2023-04-25T08:18:33;11.00;;;2.42;;
22490;SDS011;11412;50.802;4.350;2023-04-25T08:20:59;8.60;;;2.25;;
22490;SDS011;11412;50.802;4.350;2023-04-25T08:23:25;9.63;;;2.75;;
22490;SDS011;11412;50.802;4.350;2023-04-25T08:25:50;9.20;;;2.45;;
22490;SDS011;11412;50.802;4.350;2023-04-25T08:28:16;8.32;;;2.17;;
22490;SDS011;11412;50.802;4.350;2023-04-25T08:30:42;11.52;;;2.42;;
22490;SDS011;11412;50.802;4.350;2023-04-25T08:33:07;9.45;;;2.55;;
22490;SDS011;11412;50.802;4.350;2023-04-25T08:35:33;8.27;;;2.22;;
22490;SDS011;11412;50.802;4.350;2023-04-25T08:37:59;8.65;;;2.50;;
22490;SDS011;11412;50.802;4.350;2023-04-25T08:40:26;10.60;;;2.22;;
22490;SDS011;11412;50.802;4.350;2023-04-25T08:42:55;12.30;;;2.67;;
22490;SDS011;11412;50.802;4.350;2023-04-25T08:45:22;10.07;;;2.20;;
22490;SDS011;11412;50.802;4.350;2023-04-25T08:47:51;8.68;;;2.20;;
22490;SDS011;11412;50.802;4.350;2023-04-25T08:50:18;6.00;;;2.08;;
22490;SDS011;11412;50.802;4.350;2023-04-25T08:52:46;3.58;;;1.85;;
22490;SDS011;11412;50.802;4.350;2023-04-25T08:55:14;8.32;;;2.15;;
22490;SDS011;11412;50.802;4.350;2023-04-25T08:57:41;7.75;;;1.73;;
22490;SDS011;11412;50.802;4.350;2023-04-25T09:00:10;5.72;;;1.83;;
22490;SDS011;11412;50.802;4.350;2023-04-25T09:02:38;7.95;;;1.70;;
22490;SDS011;11412;50.802;4.350;2023-04-25T09:05:05;9.50;;;1.90;;
22490;SDS011;11412;50.802;4.350;2023-04-25T09:07:32;9.43;;;2.03;;
22490;SDS011;11412;50.802;4.350;2023-04-25T09:09:58;8.10;;;2.22;;
22490;SDS011;11412;50.802;4.350;2023-04-25T09:12:28;7.28;;;1.88;;
22490;SDS011;11412;50.802;4.350;2023-04-25T09:15:02;9.32;;;2.03;;
22490;SDS011;11412;50.802;4.350;2023-04-25T09:17:31;5.43;;;1.67;;
22490;SDS011;11412;50.802;4.350;2023-04-25T09:20:05;7.78;;;1.92;;
22490;SDS011;11412;50.802;4.350;2023-04-25T09:22:32;8.98;;;2.20;;
22490;SDS011;11412;50.802;4.350;2023-04-25T09:24:58;4.90;;;1.60;;
22490;SDS011;11412;50.802;4.350;2023-04-25T09:27:28;5.53;;;1.30;;
22490;SDS011;11412;50.802;4.350;2023-04-25T09:29:58;6.65;;;1.75;;
22490;SDS011;11412;50.802;4.350;2023-04-25T09:32:26;7.85;;;1.70;;
22490;SDS011;11412;50.802;4.350;2023-04-25T09:34:53;12.18;;;1.80;;
22490;SDS011;11412;50.802;4.350;2023-04-25T09:37:21;6.88;;;1.95;;
22490;SDS011;11412;50.802;4.350;2023-04-25T09:39:52;6.25;;;1.52;;
22490;SDS011;11412;50.802;4.350;2023-04-25T09:42:21;7.93;;;1.90;;
22490;SDS011;11412;50.802;4.350;2023-04-25T09:44:52;5.93;;;1.55;;
22490;SDS011;11412;50.802;4.350;2023-04-25T09:47:19;5.00;;;1.60;;
22490;SDS011;11412;50.802;4.350;2023-04-25T09:49:47;8.27;;;1.83;;
22490;SDS011;11412;50.802;4.350;2023-04-25T09:52:14;6.55;;;2.47;;
22490;SDS011;11412;50.802;4.350;2023-04-25T09:54:41;6.65;;;1.80;;
22490;SDS011;11412;50.802;4.350;2023-04-25T09:57:15;6.57;;;2.08;;
22490;SDS011;11412;50.802;4.350;2023-04-25T09:59:46;7.18;;;2.10;;
22490;SDS011;11412;50.802;4.350;2023-04-25T10:02:17;3.63;;;1.50;;
22490;SDS011;11412;50.802;4.350;2023-04-25T10:04:47;7.20;;;1.80;;
22490;SDS011;11412;50.802;4.350;2023-04-25T10:07:17;6.75;;;1.65;;
22490;SDS011;11412;50.802;4.350;2023-04-25T10:09:45;6.13;;;2.22;;
22490;SDS011;11412;50.802;4.350;2023-04-25T10:12:14;5.22;;;1.48;;
22490;SDS011;11412;50.802;4.350;2023-04-25T10:14:41;4.22;;;1.38;;
22490;SDS011;11412;50.802;4.350;2023-04-25T10:17:08;5.28;;;1.83;;
22490;SDS011;11412;50.802;4.350;2023-04-25T10:19:36;7.93;;;1.70;;
22490;SDS011;11412;50.802;4.350;2023-04-25T10:22:11;5.90;;;1.58;;
22490;SDS011;11412;50.802;4.350;2023-04-25T10:24:42;5.63;;;1.50;;
22490;SDS011;11412;50.802;4.350;2023-04-25T10:27:09;2.70;;;1.30;;
22490;SDS011;11412;50.802;4.350;2023-04-25T10:29:36;5.05;;;1.58;;
22490;SDS011;11412;50.802;4.350;2023-04-25T10:32:01;6.25;;;1.67;;
22490;SDS011;11412;50.802;4.350;2023-04-25T10:37:12;3.63;;;0.95;;
22490;SDS011;11412;50.802;4.350;2023-04-25T10:39:39;1.77;;;1.13;;
22490;SDS011;11412;50.802;4.350;2023-04-25T10:42:06;5.28;;;1.20;;
22490;SDS011;11412;50.802;4.350;2023-04-25T10:44:33;3.78;;;1.33;;
22490;SDS011;11412;50.802;4.350;2023-04-25T10:47:00;4.90;;;1.20;;
22490;SDS011;11412;50.802;4.350;2023-04-25T10:49:31;2.50;;;0.77;;
22490;SDS011;11412;50.802;4.350;2023-04-25T10:52:17;4.28;;;0.88;;
22490;SDS011;11412;50.802;4.350;2023-04-25T10:54:54;5.53;;;1.35;;
22490;SDS011;11412;50.802;4.350;2023-04-25T11:02:28;4.20;;;1.25;;
22490;SDS011;11412;50.802;4.350;2023-04-25T11:04:54;4.03;;;1.38;;
22490;SDS011;11412;50.802;4.350;2023-04-25T11:10:04;4.50;;;1.20;;
22490;SDS011;11412;50.802;4.350;2023-04-25T11:12:31;9.40;;;1.70;;
22490;SDS011;11412;50.802;4.350;2023-04-25T11:15:06;5.38;;;1.42;;
22490;SDS011;11412;50.802;4.350;2023-04-25T11:17:33;6.47;;;1.50;;
22490;SDS011;11412;50.802;4.350;2023-04-25T11:19:59;5.07;;;1.40;;
22490;SDS011;11412;50.802;4.350;2023-04-25T11:22:26;5.70;;;1.85;;
22490;SDS011;11412;50.802;4.350;2023-04-25T11:24:52;4.50;;;1.05;;
22490;SDS011;11412;50.802;4.350;2023-04-25T11:27:18;5.95;;;1.55;;
22490;SDS011;11412;50.802;4.350;2023-04-25T11:29:46;7.72;;;1.30;;
22490;SDS011;11412;50.802;4.350;2023-04-25T11:32:14;3.42;;;1.20;;
22490;SDS011;11412;50.802;4.350;2023-04-25T11:34:42;6.32;;;1.40;;
22490;SDS011;11412;50.802;4.350;2023-04-25T11:37:09;3.20;;;1.10;;
22490;SDS011;11412;50.802;4.350;2023-04-25T11:39:37;6.78;;;1.67;;
22490;SDS011;11412;50.802;4.350;2023-04-25T11:42:03;6.25;;;1.30;;
22490;SDS011;11412;50.802;4.350;2023-04-25T11:44:30;4.97;;;1.25;;
22490;SDS011;11412;50.802;4.350;2023-04-25T11:46:56;3.58;;;1.20;;
22490;SDS011;11412;50.802;4.350;2023-04-25T11:49:22;2.95;;;1.08;;
22490;SDS011;11412;50.802;4.350;2023-04-25T11:51:49;5.47;;;1.17;;
22490;SDS011;11412;50.802;4.350;2023-04-25T11:54:15;1.08;;;0.88;;
22490;SDS011;11412;50.802;4.350;2023-04-25T11:56:42;4.25;;;1.60;;
22490;SDS011;11412;50.802;4.350;2023-04-25T11:59:08;5.53;;;1.63;;
22490;SDS011;11412;50.802;4.350;2023-04-25T12:01:35;3.42;;;1.45;;
22490;SDS011;11412;50.802;4.350;2023-04-25T12:04:10;6.47;;;1.55;;
22490;SDS011;11412;50.802;4.350;2023-04-25T12:06:43;5.30;;;1.42;;
22490;SDS011;11412;50.802;4.350;2023-04-25T12:09:12;2.90;;;1.20;;
22490;SDS011;11412;50.802;4.350;2023-04-25T12:11:42;4.22;;;1.40;;
22490;SDS011;11412;50.802;4.350;2023-04-25T12:14:19;3.55;;;1.05;;
22490;SDS011;11412;50.802;4.350;2023-04-25T12:19:14;5.47;;;1.00;;
22490;SDS011;11412;50.802;4.350;2023-04-25T12:21:41;2.25;;;1.00;;
22490;SDS011;11412;50.802;4.350;2023-04-25T12:24:13;2.53;;;1.30;;
22490;SDS011;11412;50.802;4.350;2023-04-25T12:26:51;2.83;;;1.30;;
22490;SDS011;11412;50.802;4.350;2023-04-25T12:29:33;2.72;;;1.10;;
22490;SDS011;11412;50.802;4.350;2023-04-25T12:31:59;2.63;;;1.30;;
22490;SDS011;11412;50.802;4.350;2023-04-25T12:34:27;4.22;;;1.42;;
22490;SDS011;11412;50.802;4.350;2023-04-25T12:36:54;3.97;;;1.13;;
22490;SDS011;11412;50.802;4.350;2023-04-25T12:39:21;3.10;;;1.13;;
22490;SDS011;11412;50.802;4.350;2023-04-25T12:41:48;3.92;;;1.20;;
22490;SDS011;11412;50.802;4.350;2023-04-25T12:44:15;2.10;;;0.93;;
22490;SDS011;11412;50.802;4.350;2023-04-25T12:46:42;2.83;;;0.82;;
22490;SDS011;11412;50.802;4.350;2023-04-25T12:49:08;2.50;;;1.05;;
22490;SDS011;11412;50.802;4.350;2023-04-25T12:51:34;2.60;;;0.95;;
22490;SDS011;11412;50.802;4.350;2023-04-25T12:54:01;3.45;;;1.05;;
22490;SDS011;11412;50.802;4.350;2023-04-25T12:56:28;2.70;;;1.17;;
22490;SDS011;11412;50.802;4.350;2023-04-25T12:58:54;1.92;;;1.08;;
22490;SDS011;11412;50.802;4.350;2023-04-25T13:01:20;3.13;;;0.75;;
22490;SDS011;11412;50.802;4.350;2023-04-25T13:03:47;2.92;;;1.00;;
22490;SDS011;11412;50.802;4.350;2023-04-25T13:06:13;3.03;;;0.88;;
22490;SDS011;11412;50.802;4.350;2023-04-25T13:08:42;3.55;;;0.75;;
22490;SDS011;11412;50.802;4.350;2023-04-25T13:11:08;2.03;;;1.30;;
22490;SDS011;11412;50.802;4.350;2023-04-25T13:13:34;3.70;;;1.08;;
22490;SDS011;11412;50.802;4.350;2023-04-25T13:16:03;3.22;;;1.08;;
22490;SDS011;11412;50.802;4.350;2023-04-25T13:18:30;1.08;;;0.90;;
22490;SDS011;11412;50.802;4.350;2023-04-25T13:20:56;3.17;;;0.88;;
22490;SDS011;11412;50.802;4.350;2023-04-25T13:23:23;4.38;;;1.05;;
22490;SDS011;11412;50.802;4.350;2023-04-25T13:25:51;3.20;;;0.98;;
22490;SDS011;11412;50.802;4.350;2023-04-25T13:28:16;5.18;;;1.08;;
22490;SDS011;11412;50.802;4.350;2023-04-25T13:30:42;1.95;;;0.85;;
22490;SDS011;11412;50.802;4.350;2023-04-25T13:33:08;3.38;;;1.20;;
22490;SDS011;11412;50.802;4.350;2023-04-25T13:35:35;2.25;;;0.93;;
22490;SDS011;11412;50.802;4.350;2023-04-25T13:38:02;3.15;;;1.02;;
22490;SDS011;11412;50.802;4.350;2023-04-25T13:40:28;2.10;;;0.85;;
22490;SDS011;11412;50.802;4.350;2023-04-25T13:42:54;5.00;;;1.13;;
22490;SDS011;11412;50.802;4.350;2023-04-25T13:45:21;2.42;;;0.88;;
22490;SDS011;11412;50.802;4.350;2023-04-25T13:47:48;4.75;;;1.33;;
22490;SDS011;11412;50.802;4.350;2023-04-25T13:50:13;3.22;;;1.00;;
22490;SDS011;11412;50.802;4.350;2023-04-25T13:52:40;3.47;;;1.05;;
22490;SDS011;11412;50.802;4.350;2023-04-25T13:55:07;2.15;;;1.05;;
22490;SDS011;11412;50.802;4.350;2023-04-25T13:57:33;1.33;;;0.77;;
22490;SDS011;11412;50.802;4.350;2023-04-25T14:00:00;2.03;;;0.98;;
22490;SDS011;11412;50.802;4.350;2023-04-25T14:02:30;3.20;;;0.88;;
22490;SDS011;11412;50.802;4.350;2023-04-25T14:04:55;5.32;;;0.95;;
22490;SDS011;11412;50.802;4.350;2023-04-25T14:07:21;2.28;;;1.02;;
22490;SDS011;11412;50.802;4.350;2023-04-25T14:09:47;4.60;;;1.00;;
22490;SDS011;11412;50.802;4.350;2023-04-25T14:12:12;4.13;;;1.15;;
22490;SDS011;11412;50.802;4.350;2023-04-25T14:14:38;4.78;;;1.00;;
22490;SDS011;11412;50.802;4.350;2023-04-25T14:17:04;3.88;;;1.15;;
22490;SDS011;11412;50.802;4.350;2023-04-25T14:19:30;2.83;;;0.80;;
22490;SDS011;11412;50.802;4.350;2023-04-25T14:21:55;3.97;;;1.10;;
22490;SDS011;11412;50.802;4.350;2023-04-25T14:24:21;5.43;;;1.33;;
22490;SDS011;11412;50.802;4.350;2023-04-25T14:26:48;1.50;;;1.13;;
22490;SDS011;11412;50.802;4.350;2023-04-25T14:29:14;1.45;;;1.00;;
22490;SDS011;11412;50.802;4.350;2023-04-25T14:31:39;2.38;;;1.10;;
22490;SDS011;11412;50.802;4.350;2023-04-25T14:34:05;3.95;;;1.23;;
22490;SDS011;11412;50.802;4.350;2023-04-25T14:36:32;4.43;;;0.95;;
22490;SDS011;11412;50.802;4.350;2023-04-25T14:38:58;5.40;;;1.15;;
22490;SDS011;11412;50.802;4.350;2023-04-25T14:41:25;4.28;;;1.10;;
22490;SDS011;11412;50.802;4.350;2023-04-25T14:43:51;4.38;;;1.00;;
22490;SDS011;11412;50.802;4.350;2023-04-25T14:46:18;5.38;;;1.10;;
22490;SDS011;11412;50.802;4.350;2023-04-25T14:48:44;3.25;;;1.40;;
22490;SDS011;11412;50.802;4.350;2023-04-25T14:51:10;3.15;;;1.00;;